createdAt,value
2023-04-29T00:00:44.501Z,22.84
2023-04-29T00:01:44.442Z,22.85
2023-04-29T00:02:44.640Z,22.86
2023-04-29T00:03:44.775Z,22.85
2023-04-29T00:04:44.734Z,22.85
2023-04-29T00:05:44.615Z,22.85
2023-04-29T00:06:44.523Z,22.85
2023-04-29T00:07:44.582Z,22.85
2023-04-29T00:08:44.580Z,22.85
2023-04-29T00:09:44.578Z,22.84
2023-04-29T00:10:44.583Z,22.85
2023-04-29T00:11:44.608Z,22.85
2023-04-29T00:12:44.559Z,22.85
2023-04-29T00:13:45.578Z,22.85
2023-04-29T00:14:44.611Z,22.85
2023-04-29T00:15:44.629Z,22.85
2023-04-29T00:16:44.670Z,22.85
2023-04-29T00:17:44.654Z,22.85
2023-04-29T00:18:44.655Z,22.85
2023-04-29T00:19:44.663Z,22.85
2023-04-29T00:20:44.673Z,22.85
2023-04-29T00:21:44.690Z,22.86
2023-04-29T00:22:44.694Z,22.85
2023-04-29T00:23:44.694Z,22.85
2023-04-29T00:24:44.674Z,22.85
2023-04-29T00:25:44.748Z,22.85
2023-04-29T00:26:44.757Z,22.86
2023-04-29T00:27:44.758Z,22.86
2023-04-29T00:28:44.750Z,22.86
2023-04-29T00:29:44.775Z,22.85
2023-04-29T00:30:44.808Z,22.85
2023-04-29T00:31:44.753Z,22.85
2023-04-29T00:32:44.862Z,22.85
2023-04-29T00:33:44.793Z,22.85
2023-04-29T00:34:44.809Z,22.86
2023-04-29T00:35:44.812Z,22.86
2023-04-29T00:36:44.817Z,22.86
2023-04-29T00:37:44.822Z,22.86
2023-04-29T00:38:44.831Z,22.86
2023-04-29T00:39:44.796Z,22.86
2023-04-29T00:40:44.868Z,22.86
2023-04-29T00:41:44.858Z,22.86
2023-04-29T00:42:44.857Z,22.86
2023-04-29T00:43:44.857Z,22.87
2023-04-29T00:44:44.879Z,22.86
2023-04-29T00:45:44.890Z,22.86
2023-04-29T00:46:44.922Z,22.87
2023-04-29T00:47:45.024Z,22.87
2023-04-29T00:48:44.864Z,22.86
2023-04-29T00:49:44.902Z,22.86
2023-04-29T00:50:44.914Z,22.86
2023-04-29T00:51:44.917Z,22.86
2023-04-29T00:52:44.919Z,22.87
2023-04-29T00:53:44.947Z,22.86
2023-04-29T00:54:44.950Z,22.86
2023-04-29T00:55:44.948Z,22.87
2023-04-29T00:56:44.954Z,22.86
2023-04-29T00:57:44.969Z,22.86
2023-04-29T00:58:44.957Z,22.86
2023-04-29T00:59:44.955Z,22.86
2023-04-29T01:00:44.982Z,22.86
2023-04-29T01:01:45.025Z,22.87
2023-04-29T01:02:45.075Z,22.87
2023-04-29T01:03:45.103Z,22.87
2023-04-29T01:04:45.059Z,22.87
2023-04-29T01:05:45.008Z,22.87
2023-04-29T01:06:45.027Z,22.88
2023-04-29T01:07:45.026Z,22.87
2023-04-29T01:08:45.030Z,22.87
2023-04-29T01:09:45.005Z,22.88
2023-04-29T01:10:45.045Z,22.89
2023-04-29T01:11:45.009Z,22.87
2023-04-29T01:12:45.074Z,22.87
2023-04-29T01:13:45.024Z,22.87
2023-04-29T01:14:45.042Z,22.87
2023-04-29T01:15:45.075Z,22.87
2023-04-29T01:16:45.095Z,22.87
2023-04-29T01:17:45.135Z,22.87
2023-04-29T01:18:45.111Z,22.87
2023-04-29T01:19:45.134Z,22.88
2023-04-29T01:20:45.139Z,22.87
2023-04-29T01:21:45.121Z,22.88
2023-04-29T01:22:45.108Z,22.88
2023-04-29T01:23:45.150Z,22.87
2023-04-29T01:24:45.142Z,22.87
2023-04-29T01:25:45.169Z,22.88
2023-04-29T01:26:45.153Z,22.87
2023-04-29T01:27:45.160Z,22.88
2023-04-29T01:28:45.167Z,22.88
2023-04-29T01:29:45.169Z,22.88
2023-04-29T01:30:45.188Z,22.88
2023-04-29T01:31:45.300Z,22.88
2023-04-29T01:32:45.337Z,22.88
2023-04-29T01:33:45.208Z,22.89
2023-04-29T01:34:45.215Z,22.89
2023-04-29T01:35:45.226Z,22.89
2023-04-29T01:36:45.595Z,22.88
2023-04-29T01:37:45.228Z,22.88
2023-04-29T01:38:45.602Z,22.88
2023-04-29T01:39:45.259Z,22.88
2023-04-29T01:40:45.277Z,22.88
2023-04-29T01:41:45.279Z,22.88
2023-04-29T01:42:45.292Z,22.88
2023-04-29T01:43:45.249Z,22.88
2023-04-29T01:44:45.266Z,22.88
2023-04-29T01:45:45.324Z,22.89
2023-04-29T01:46:45.366Z,22.88
2023-04-29T01:47:45.324Z,22.89
2023-04-29T01:48:45.358Z,22.88
2023-04-29T01:49:45.303Z,22.88
2023-04-29T01:50:45.337Z,22.88
2023-04-29T01:51:45.334Z,22.88
2023-04-29T01:52:45.336Z,22.89
2023-04-29T01:53:45.347Z,22.88
2023-04-29T01:54:45.346Z,22.88
2023-04-29T01:55:45.354Z,22.89
2023-04-29T01:56:45.378Z,22.88
2023-04-29T01:57:45.397Z,22.89
2023-04-29T01:58:45.367Z,22.88
2023-04-29T01:59:45.391Z,22.89
2023-04-29T02:00:45.402Z,22.88
2023-04-29T02:01:45.400Z,22.89
2023-04-29T02:02:45.431Z,22.89
2023-04-29T02:03:45.525Z,22.89
2023-04-29T02:04:45.459Z,22.89
2023-04-29T02:05:45.470Z,22.89
2023-04-29T02:06:45.438Z,22.89
2023-04-29T02:07:45.451Z,22.89
2023-04-29T02:08:45.441Z,22.89
2023-04-29T02:09:45.450Z,22.89
2023-04-29T02:10:45.460Z,22.89
2023-04-29T02:11:45.446Z,22.89
2023-04-29T02:12:45.481Z,22.89
2023-04-29T02:13:45.475Z,22.89
2023-04-29T02:14:45.476Z,22.89
2023-04-29T02:15:45.802Z,22.89
2023-04-29T02:16:45.542Z,22.89
2023-04-29T02:17:45.597Z,22.89
2023-04-29T02:18:45.507Z,22.89
2023-04-29T02:19:45.523Z,22.90
2023-04-29T02:20:45.528Z,22.89
2023-04-29T02:21:45.524Z,22.90
2023-04-29T02:22:45.535Z,22.89
2023-04-29T02:23:45.526Z,22.90
2023-04-29T02:24:45.536Z,22.89
2023-04-29T02:25:45.565Z,22.89
2023-04-29T02:26:45.564Z,22.90
2023-04-29T02:27:45.547Z,22.90
2023-04-29T02:28:45.563Z,22.90
2023-04-29T02:29:45.547Z,22.90
2023-04-29T02:30:45.602Z,22.90
2023-04-29T02:31:45.664Z,22.90
2023-04-29T02:32:45.687Z,22.90
2023-04-29T02:33:45.628Z,22.90
2023-04-29T02:34:45.572Z,22.90
2023-04-29T02:35:45.638Z,22.90
2023-04-29T02:36:45.612Z,22.90
2023-04-29T02:37:45.614Z,22.90
2023-04-29T02:38:45.656Z,22.90
2023-04-29T02:39:45.657Z,22.90
2023-04-29T02:40:45.673Z,22.90
2023-04-29T02:41:45.683Z,22.90
2023-04-29T02:42:45.639Z,22.91
2023-04-29T02:43:45.658Z,22.90
2023-04-29T02:44:45.660Z,22.90
2023-04-29T02:45:45.707Z,22.90
2023-04-29T02:46:45.664Z,22.91
2023-04-29T02:47:45.758Z,22.91
2023-04-29T02:48:45.674Z,22.91
2023-04-29T02:49:45.656Z,22.91
2023-04-29T02:50:45.664Z,22.91
2023-04-29T02:51:45.674Z,22.91
2023-04-29T02:52:45.692Z,22.90
2023-04-29T02:53:45.695Z,22.90
2023-04-29T02:54:45.711Z,22.90
2023-04-29T02:55:45.706Z,22.91
2023-04-29T02:56:45.714Z,22.91
2023-04-29T02:57:45.717Z,22.91
2023-04-29T02:58:45.723Z,22.91
2023-04-29T02:59:45.751Z,22.92
2023-04-29T03:00:45.696Z,22.91
2023-04-29T03:01:45.769Z,22.92
2023-04-29T03:02:45.812Z,22.91
2023-04-29T03:03:45.772Z,22.92
2023-04-29T03:04:45.732Z,22.92
2023-04-29T03:05:45.761Z,22.92
2023-04-29T03:06:45.748Z,22.92
2023-04-29T03:07:45.744Z,22.92
2023-04-29T03:08:45.787Z,22.92
2023-04-29T03:09:45.777Z,22.93
2023-04-29T03:10:45.733Z,22.92
2023-04-29T03:11:45.717Z,22.93
2023-04-29T03:12:45.716Z,22.93
2023-04-29T03:13:45.739Z,22.93
2023-04-29T03:14:45.721Z,22.92
2023-04-29T03:15:45.731Z,22.92
2023-04-29T03:16:45.772Z,22.92
2023-04-29T03:17:45.811Z,22.92
2023-04-29T03:18:45.735Z,22.92
2023-04-29T03:19:45.726Z,22.92
2023-04-29T03:20:45.752Z,22.91
2023-04-29T03:21:45.744Z,22.92
2023-04-29T03:22:45.754Z,22.91
2023-04-29T03:23:45.808Z,22.92
2023-04-29T03:24:45.793Z,22.92
2023-04-29T03:25:45.799Z,22.92
2023-04-29T03:26:45.742Z,22.91
2023-04-29T03:27:45.747Z,22.91
2023-04-29T03:28:45.778Z,22.91
2023-04-29T03:29:45.749Z,22.91
2023-04-29T03:30:45.785Z,22.91
2023-04-29T03:31:45.927Z,22.92
2023-04-29T03:32:45.789Z,22.92
2023-04-29T03:33:45.749Z,22.92
2023-04-29T03:34:45.765Z,22.92
2023-04-29T03:35:45.783Z,22.92
2023-04-29T03:36:45.757Z,22.92
2023-04-29T03:37:45.773Z,22.91
2023-04-29T03:38:45.785Z,22.91
2023-04-29T03:39:45.827Z,22.92
2023-04-29T03:40:45.796Z,22.92
2023-04-29T03:41:45.810Z,22.92
2023-04-29T03:42:45.782Z,22.92
2023-04-29T03:43:45.791Z,22.92
2023-04-29T03:44:45.807Z,22.92
2023-04-29T03:45:45.875Z,22.92
2023-04-29T03:46:45.859Z,22.92
2023-04-29T03:47:45.889Z,22.92
2023-04-29T03:48:45.824Z,22.92
2023-04-29T03:49:45.822Z,22.92
2023-04-29T03:50:45.850Z,22.93
2023-04-29T03:51:45.848Z,22.93
2023-04-29T03:52:45.874Z,22.93
2023-04-29T03:53:45.829Z,22.93
2023-04-29T03:54:45.873Z,22.93
2023-04-29T03:55:45.875Z,22.93
2023-04-29T03:56:45.852Z,22.92
2023-04-29T03:57:45.857Z,22.92
2023-04-29T03:58:45.843Z,22.92
2023-04-29T03:59:45.882Z,22.92
2023-04-29T04:00:45.859Z,22.92
2023-04-29T04:01:45.855Z,22.93
2023-04-29T04:02:46.007Z,22.93
2023-04-29T04:03:45.943Z,22.92
2023-04-29T04:04:46.186Z,22.92
2023-04-29T04:05:45.917Z,22.93
2023-04-29T04:06:45.899Z,22.93
2023-04-29T04:07:45.908Z,22.92
2023-04-29T04:08:45.883Z,22.92
2023-04-29T04:09:45.927Z,22.93
2023-04-29T04:10:45.907Z,22.92
2023-04-29T04:11:45.878Z,22.92
2023-04-29T04:12:45.888Z,22.93
2023-04-29T04:13:45.920Z,22.93
2023-04-29T04:14:45.900Z,22.93
2023-04-29T04:15:45.920Z,22.93
2023-04-29T04:16:45.974Z,22.93
2023-04-29T04:17:45.997Z,22.93
2023-04-29T04:18:45.994Z,22.93
2023-04-29T04:19:45.948Z,22.93
2023-04-29T04:20:45.931Z,22.92
2023-04-29T04:21:45.893Z,22.93
2023-04-29T04:22:45.929Z,22.93
2023-04-29T04:23:45.917Z,22.93
2023-04-29T04:24:45.906Z,22.92
2023-04-29T04:25:45.916Z,22.93
2023-04-29T04:26:45.929Z,22.93
2023-04-29T04:27:45.950Z,22.93
2023-04-29T04:28:45.975Z,22.93
2023-04-29T04:29:45.975Z,22.93
2023-04-29T04:30:45.955Z,22.94
2023-04-29T04:31:47.026Z,22.94
2023-04-29T04:32:45.998Z,22.93
2023-04-29T04:33:45.983Z,22.93
2023-04-29T04:34:45.942Z,22.94
2023-04-29T04:35:45.949Z,22.93
2023-04-29T04:36:45.940Z,22.93
2023-04-29T04:37:45.983Z,22.93
2023-04-29T04:38:45.979Z,22.94
2023-04-29T04:39:45.989Z,22.94
2023-04-29T04:40:45.972Z,22.93
2023-04-29T04:41:45.927Z,22.94
2023-04-29T04:42:45.961Z,22.94
2023-04-29T04:43:45.942Z,22.94
2023-04-29T04:44:45.969Z,22.93
2023-04-29T04:45:46.015Z,22.94
2023-04-29T04:46:45.959Z,22.94
2023-04-29T04:47:45.984Z,22.94
2023-04-29T04:48:45.938Z,22.94
2023-04-29T04:49:45.988Z,22.94
2023-04-29T04:50:45.948Z,22.94
2023-04-29T04:51:45.964Z,22.93
2023-04-29T04:52:45.948Z,22.94
2023-04-29T04:53:45.990Z,22.94
2023-04-29T04:54:45.945Z,22.94
2023-04-29T04:55:45.970Z,22.93
2023-04-29T04:56:45.954Z,22.94
2023-04-29T04:57:45.987Z,22.93
2023-04-29T04:58:45.981Z,22.93
2023-04-29T04:59:45.998Z,22.93
2023-04-29T05:00:46.136Z,22.93
2023-04-29T05:01:45.966Z,22.93
2023-04-29T05:02:46.187Z,22.93
2023-04-29T05:03:46.182Z,22.93
2023-04-29T05:04:45.969Z,22.93
2023-04-29T05:05:45.988Z,22.93
2023-04-29T05:06:46.035Z,22.93
2023-04-29T05:07:46.088Z,22.93
2023-04-29T05:08:46.005Z,22.93
2023-04-29T05:09:46.072Z,22.93
2023-04-29T05:10:46.053Z,22.94
2023-04-29T05:11:46.000Z,22.93
2023-04-29T05:12:45.993Z,22.93
2023-04-29T05:13:45.998Z,22.94
2023-04-29T05:14:46.004Z,22.93
2023-04-29T05:15:45.992Z,22.94
2023-04-29T05:16:46.038Z,22.93
2023-04-29T05:17:46.046Z,22.94
2023-04-29T05:18:46.007Z,22.93
2023-04-29T05:19:46.007Z,22.94
2023-04-29T05:20:46.042Z,22.94
2023-04-29T05:21:45.984Z,22.94
2023-04-29T05:22:46.326Z,22.94
2023-04-29T05:23:46.014Z,22.94
2023-04-29T05:24:46.020Z,22.93
2023-04-29T05:25:46.046Z,22.95
2023-04-29T05:26:46.027Z,22.94
2023-04-29T05:27:46.044Z,22.94
2023-04-29T05:28:46.036Z,22.95
2023-04-29T05:29:46.039Z,22.95
2023-04-29T05:30:46.065Z,22.94
2023-04-29T05:31:46.037Z,22.95
2023-04-29T05:32:46.034Z,22.96
2023-04-29T05:33:45.996Z,22.95
2023-04-29T05:34:46.028Z,22.95
2023-04-29T05:35:46.038Z,22.96
2023-04-29T05:36:46.035Z,22.95
2023-04-29T05:37:46.038Z,22.96
2023-04-29T05:38:46.043Z,22.96
2023-04-29T05:39:46.029Z,22.95
2023-04-29T05:40:46.014Z,22.96
2023-04-29T05:41:46.020Z,22.96
2023-04-29T05:42:46.028Z,22.96
2023-04-29T05:43:46.001Z,22.96
2023-04-29T05:44:46.025Z,22.97
2023-04-29T05:45:46.066Z,22.96
2023-04-29T05:46:46.030Z,22.96
2023-04-29T05:47:46.097Z,22.96
2023-04-29T05:48:45.969Z,22.96
2023-04-29T05:49:46.044Z,22.96
2023-04-29T05:50:45.996Z,22.97
2023-04-29T05:51:45.993Z,22.96
2023-04-29T05:52:45.978Z,22.97
2023-04-29T05:53:46.009Z,22.97
2023-04-29T05:54:45.994Z,22.96
2023-04-29T05:55:46.016Z,22.96
2023-04-29T05:56:45.996Z,22.96
2023-04-29T05:57:45.998Z,22.97
2023-04-29T05:58:45.986Z,22.97
2023-04-29T05:59:45.985Z,22.97
2023-04-29T06:00:45.993Z,22.96
2023-04-29T06:01:46.015Z,22.97
2023-04-29T06:02:57.339Z,22.97
2023-04-29T06:03:47.117Z,22.96
2023-04-29T06:04:46.147Z,22.96
2023-04-29T06:05:46.204Z,22.96
2023-04-29T06:06:45.941Z,22.96
2023-04-29T06:07:45.948Z,22.96
2023-04-29T06:08:45.938Z,22.97
2023-04-29T06:09:45.968Z,22.97
2023-04-29T06:10:45.914Z,22.97
2023-04-29T06:11:45.920Z,22.97
2023-04-29T06:12:45.886Z,22.97
2023-04-29T06:13:45.892Z,22.97
2023-04-29T06:14:45.870Z,22.97
2023-04-29T06:15:45.896Z,22.97
2023-04-29T06:16:45.900Z,22.97
2023-04-29T06:17:45.944Z,22.98
2023-04-29T06:18:45.866Z,22.98
2023-04-29T06:19:45.887Z,22.98
2023-04-29T06:20:45.852Z,22.99
2023-04-29T06:21:45.985Z,22.98
2023-04-29T06:22:45.856Z,22.98
2023-04-29T06:23:45.830Z,22.98
2023-04-29T06:24:45.812Z,22.98
2023-04-29T06:25:45.781Z,22.98
2023-04-29T06:26:45.786Z,22.98
2023-04-29T06:27:45.793Z,22.98
2023-04-29T06:28:45.771Z,22.98
2023-04-29T06:29:45.775Z,22.99
2023-04-29T06:30:45.777Z,22.99
2023-04-29T06:31:46.159Z,22.99
2023-04-29T06:32:45.735Z,22.99
2023-04-29T06:33:45.754Z,22.99
2023-04-29T06:34:45.734Z,22.99
2023-04-29T06:35:45.742Z,22.99
2023-04-29T06:36:45.732Z,22.99
2023-04-29T06:37:45.720Z,23.00
2023-04-29T06:38:45.706Z,22.99
2023-04-29T06:39:45.715Z,22.99
2023-04-29T06:40:45.714Z,23.00
2023-04-29T06:41:45.675Z,22.99
2023-04-29T06:42:45.708Z,23.00
2023-04-29T06:43:48.558Z,23.00
2023-04-29T06:44:45.655Z,23.00
2023-04-29T06:45:45.645Z,23.00
2023-04-29T06:46:45.708Z,23.01
2023-04-29T06:47:45.726Z,23.01
2023-04-29T06:48:45.616Z,23.01
2023-04-29T06:49:45.628Z,23.02
2023-04-29T06:50:45.607Z,23.02
2023-04-29T06:51:45.646Z,23.02
2023-04-29T06:52:45.606Z,23.02
2023-04-29T06:53:45.622Z,23.02
2023-04-29T06:54:45.645Z,23.02
2023-04-29T06:55:45.583Z,23.02
2023-04-29T06:56:45.597Z,23.03
2023-04-29T06:57:45.601Z,23.03
2023-04-29T06:58:45.602Z,23.03
2023-04-29T06:59:45.875Z,23.03
2023-04-29T07:00:45.595Z,23.04
2023-04-29T07:01:47.090Z,23.03
2023-04-29T07:02:45.631Z,23.04
2023-04-29T07:03:45.709Z,23.03
2023-04-29T07:04:45.553Z,23.04
2023-04-29T07:05:45.600Z,23.05
2023-04-29T07:06:45.564Z,23.05
2023-04-29T07:07:45.510Z,23.04
2023-04-29T07:08:45.511Z,23.05
2023-04-29T07:09:45.529Z,23.05
2023-04-29T07:10:45.510Z,23.05
2023-04-29T07:11:45.470Z,23.05
2023-04-29T07:12:45.478Z,23.06
2023-04-29T07:13:45.468Z,23.06
2023-04-29T07:14:45.466Z,23.06
2023-04-29T07:15:45.470Z,23.07
2023-04-29T07:16:45.610Z,23.07
2023-04-29T07:17:45.473Z,23.07
2023-04-29T07:18:45.433Z,23.08
2023-04-29T07:19:45.444Z,23.07
2023-04-29T07:20:45.459Z,23.08
2023-04-29T07:21:45.569Z,23.07
2023-04-29T07:22:45.406Z,23.08
2023-04-29T07:23:45.370Z,23.08
2023-04-29T07:24:45.447Z,23.09
2023-04-29T07:25:45.386Z,23.09
2023-04-29T07:26:45.398Z,23.09
2023-04-29T07:27:45.393Z,23.11
2023-04-29T07:28:45.433Z,23.09
2023-04-29T07:29:45.415Z,23.10
2023-04-29T07:30:45.419Z,23.11
2023-04-29T07:31:45.365Z,23.11
2023-04-29T07:32:45.363Z,23.11
2023-04-29T07:33:45.355Z,23.12
2023-04-29T07:34:45.350Z,23.12
2023-04-29T07:35:45.334Z,23.12
2023-04-29T07:36:45.357Z,23.12
2023-04-29T07:37:45.352Z,23.12
2023-04-29T07:38:45.271Z,23.12
2023-04-29T07:39:45.292Z,23.12
2023-04-29T07:40:45.282Z,23.13
2023-04-29T07:41:45.292Z,23.13
2023-04-29T07:42:45.309Z,23.14
2023-04-29T07:43:45.257Z,23.14
2023-04-29T07:44:45.283Z,23.14
2023-04-29T07:45:45.295Z,23.14
2023-04-29T07:46:45.387Z,23.15
2023-04-29T07:47:45.289Z,23.15
2023-04-29T07:48:45.232Z,23.15
2023-04-29T07:49:45.209Z,23.16
2023-04-29T07:50:45.234Z,23.17
2023-04-29T07:51:45.257Z,23.17
2023-04-29T07:52:45.204Z,23.17
2023-04-29T07:53:45.286Z,23.17
2023-04-29T07:54:45.346Z,23.17
2023-04-29T07:55:45.204Z,23.19
2023-04-29T07:56:45.188Z,23.18
2023-04-29T07:57:45.162Z,23.18
2023-04-29T07:58:45.235Z,23.19
2023-04-29T07:59:45.172Z,23.20
2023-04-29T08:00:45.152Z,23.20
2023-04-29T08:01:45.167Z,23.21
2023-04-29T08:02:45.266Z,23.22
2023-04-29T08:03:45.384Z,23.22
2023-04-29T08:04:45.455Z,23.23
2023-04-29T08:05:45.291Z,23.23
2023-04-29T08:06:45.158Z,23.23
2023-04-29T08:07:45.220Z,23.24
2023-04-29T08:08:45.244Z,23.24
2023-04-29T08:09:45.670Z,23.25
2023-04-29T08:10:45.441Z,23.25
2023-04-29T08:11:45.481Z,23.25
2023-04-29T08:12:45.513Z,23.27
2023-04-29T08:13:45.572Z,23.27
2023-04-29T08:14:45.669Z,23.28
2023-04-29T08:15:45.747Z,23.28
2023-04-29T08:16:45.854Z,23.27
2023-04-29T08:17:45.875Z,23.29
2023-04-29T08:18:45.882Z,23.29
2023-04-29T08:19:45.970Z,23.29
2023-04-29T08:20:46.021Z,23.30
2023-04-29T08:21:46.070Z,23.30
2023-04-29T08:22:46.105Z,23.31
2023-04-29T08:23:46.179Z,23.31
2023-04-29T08:24:46.208Z,23.31
2023-04-29T08:25:46.298Z,23.32
2023-04-29T08:26:46.341Z,23.32
2023-04-29T08:27:46.418Z,23.33
2023-04-29T08:28:46.469Z,23.34
2023-04-29T08:29:46.556Z,23.34
2023-04-29T08:30:46.585Z,23.35
2023-04-29T08:31:46.722Z,23.35
2023-04-29T08:32:46.705Z,23.36
2023-04-29T08:33:46.756Z,23.37
2023-04-29T08:34:46.841Z,23.37
2023-04-29T08:35:46.862Z,23.38
2023-04-29T08:36:46.917Z,23.37
2023-04-29T08:37:46.933Z,23.39
2023-04-29T08:38:47.200Z,23.41
2023-04-29T08:39:47.092Z,23.41
2023-04-29T08:40:47.145Z,23.41
2023-04-29T08:41:47.195Z,23.42
2023-04-29T08:42:48.992Z,23.42
2023-04-29T08:43:47.279Z,23.43
2023-04-29T08:44:47.405Z,23.42
2023-04-29T08:45:47.476Z,23.44
2023-04-29T08:46:47.464Z,23.44
2023-04-29T08:47:47.528Z,23.44
2023-04-29T08:48:47.595Z,23.45
2023-04-29T08:49:47.595Z,23.46
2023-04-29T08:50:47.625Z,23.46
2023-04-29T08:51:47.687Z,23.47
2023-04-29T08:52:47.750Z,23.47
2023-04-29T08:53:47.764Z,23.47
2023-04-29T08:54:47.884Z,23.47
2023-04-29T08:55:47.934Z,23.47
2023-04-29T08:56:47.935Z,23.47
2023-04-29T08:57:48.005Z,23.47
2023-04-29T08:58:48.042Z,23.47
2023-04-29T08:59:48.089Z,23.47
2023-04-29T09:00:48.163Z,23.46
2023-04-29T09:01:48.227Z,23.47
2023-04-29T09:02:48.298Z,23.47
2023-04-29T09:03:48.475Z,23.47
2023-04-29T09:04:48.395Z,23.47
2023-04-29T09:05:48.403Z,23.48
2023-04-29T09:06:48.471Z,23.48
2023-04-29T09:07:48.519Z,23.48
2023-04-29T09:08:48.521Z,23.48
2023-04-29T09:09:48.630Z,23.48
2023-04-29T09:10:48.647Z,23.48
2023-04-29T09:11:48.719Z,23.49
2023-04-29T09:12:48.760Z,23.48
2023-04-29T09:13:48.799Z,23.48
2023-04-29T09:14:48.817Z,23.48
2023-04-29T09:15:48.885Z,23.49
2023-04-29T09:16:48.960Z,23.48
2023-04-29T09:17:49.041Z,23.49
2023-04-29T09:18:49.046Z,23.49
2023-04-29T09:19:49.081Z,23.50
2023-04-29T09:20:49.116Z,23.49
2023-04-29T09:21:49.169Z,23.50
2023-04-29T09:22:49.233Z,23.49
2023-04-29T09:23:49.240Z,23.50
2023-04-29T09:24:49.303Z,23.50
2023-04-29T09:25:49.339Z,23.50
2023-04-29T09:26:51.714Z,23.51
2023-04-29T09:27:49.413Z,23.51
2023-04-29T09:28:49.470Z,23.51
2023-04-29T09:29:49.547Z,23.52
2023-04-29T09:30:49.579Z,23.51
2023-04-29T09:31:49.640Z,23.51
2023-04-29T09:32:49.680Z,23.52
2023-04-29T09:33:49.718Z,23.52
2023-04-29T09:34:49.747Z,23.52
2023-04-29T09:35:49.762Z,23.52
2023-04-29T09:36:49.856Z,23.53
2023-04-29T09:37:49.849Z,23.53
2023-04-29T09:38:49.904Z,23.54
2023-04-29T09:39:49.919Z,23.53
2023-04-29T09:40:58.101Z,23.54
2023-04-29T09:41:50.953Z,23.54
2023-04-29T09:42:49.941Z,23.54
2023-04-29T09:43:50.308Z,23.54
2023-04-29T09:44:49.950Z,23.54
2023-04-29T09:45:49.924Z,23.55
2023-04-29T09:46:49.921Z,23.55
2023-04-29T09:47:49.942Z,23.54
2023-04-29T09:48:49.927Z,23.54
2023-04-29T09:49:49.921Z,23.55
2023-04-29T09:50:49.884Z,23.55
2023-04-29T09:51:49.886Z,23.55
2023-04-29T09:52:49.873Z,23.55
2023-04-29T09:53:49.860Z,23.57
2023-04-29T09:54:49.870Z,23.57
2023-04-29T09:55:49.918Z,23.56
2023-04-29T09:56:50.021Z,23.57
2023-04-29T09:57:49.992Z,23.56
2023-04-29T09:58:50.038Z,23.56
2023-04-29T09:59:50.105Z,23.56
2023-04-29T10:00:50.110Z,23.55
2023-04-29T10:01:50.208Z,23.56
2023-04-29T10:02:50.337Z,23.56
2023-04-29T10:03:50.360Z,23.55
2023-04-29T10:04:50.330Z,23.55
2023-04-29T10:05:50.352Z,23.56
2023-04-29T10:06:50.363Z,23.56
2023-04-29T10:07:50.411Z,23.56
2023-04-29T10:08:50.426Z,23.56
2023-04-29T10:09:50.494Z,23.56
2023-04-29T10:10:50.533Z,23.56
2023-04-29T10:11:50.565Z,23.56
2023-04-29T10:12:50.571Z,23.56
2023-04-29T10:13:50.615Z,23.56
2023-04-29T10:14:50.834Z,23.56
2023-04-29T10:15:50.737Z,23.57
2023-04-29T10:16:50.745Z,23.56
2023-04-29T10:17:50.775Z,23.57
2023-04-29T10:18:50.852Z,23.56
2023-04-29T10:19:50.860Z,23.57
2023-04-29T10:20:50.924Z,23.57
2023-04-29T10:21:50.983Z,23.57
2023-04-29T10:22:50.986Z,23.56
2023-04-29T10:23:51.051Z,23.56
2023-04-29T10:24:51.207Z,23.57
2023-04-29T10:25:51.098Z,23.58
2023-04-29T10:26:51.167Z,23.58
2023-04-29T10:27:51.176Z,23.58
2023-04-29T10:28:51.217Z,23.59
2023-04-29T10:29:51.242Z,23.60
2023-04-29T10:30:51.286Z,23.60
2023-04-29T10:31:51.423Z,23.59
2023-04-29T10:32:52.495Z,23.59
2023-04-29T10:33:51.442Z,23.60
2023-04-29T10:34:51.595Z,23.60
2023-04-29T10:35:51.497Z,23.61
2023-04-29T10:36:51.588Z,23.60
2023-04-29T10:37:51.594Z,23.60
2023-04-29T10:38:51.649Z,23.60
2023-04-29T10:39:51.668Z,23.59
2023-04-29T10:40:51.702Z,23.59
2023-04-29T10:41:51.818Z,23.59
2023-04-29T10:42:51.772Z,23.59
2023-04-29T10:43:51.793Z,23.60
2023-04-29T10:44:51.954Z,23.59
2023-04-29T10:45:51.834Z,23.59
2023-04-29T10:46:52.014Z,23.60
2023-04-29T10:47:51.933Z,23.60
2023-04-29T10:48:51.964Z,23.60
2023-04-29T10:49:51.998Z,23.60
2023-04-29T10:50:52.054Z,23.60
2023-04-29T10:51:52.104Z,23.61
2023-04-29T10:52:52.162Z,23.62
2023-04-29T10:53:52.146Z,23.60
2023-04-29T10:54:52.412Z,23.61
2023-04-29T10:55:52.234Z,23.60
2023-04-29T10:56:52.272Z,23.61
2023-04-29T10:57:52.303Z,23.61
2023-04-29T10:58:52.329Z,23.62
2023-04-29T10:59:52.394Z,23.61
2023-04-29T11:00:52.422Z,23.62
2023-04-29T11:01:52.443Z,23.62
2023-04-29T11:02:52.551Z,23.62
2023-04-29T11:03:52.633Z,23.62
2023-04-29T11:04:52.850Z,23.61
2023-04-29T11:05:52.591Z,23.62
2023-04-29T11:06:52.611Z,23.62
2023-04-29T11:07:52.678Z,23.62
2023-04-29T11:08:52.702Z,23.62
2023-04-29T11:09:52.946Z,23.62
2023-04-29T11:10:52.776Z,23.62
2023-04-29T11:11:52.855Z,23.62
2023-04-29T11:12:52.807Z,23.62
2023-04-29T11:13:52.838Z,23.62
2023-04-29T11:14:53.142Z,23.62
2023-04-29T11:15:52.915Z,23.62
2023-04-29T11:16:53.256Z,23.63
2023-04-29T11:17:53.013Z,23.62
2023-04-29T11:18:53.019Z,23.62
2023-04-29T11:19:53.388Z,23.63
2023-04-29T11:20:53.107Z,23.62
2023-04-29T11:21:53.129Z,23.63
2023-04-29T11:22:53.205Z,23.63
2023-04-29T11:23:53.196Z,23.62
2023-04-29T11:24:53.578Z,23.61
2023-04-29T11:25:53.255Z,23.62
2023-04-29T11:26:53.275Z,23.62
2023-04-29T11:27:53.274Z,23.61
2023-04-29T11:28:53.274Z,23.61
2023-04-29T11:29:53.310Z,23.61
2023-04-29T11:30:53.374Z,23.61
2023-04-29T11:31:53.508Z,23.61
2023-04-29T11:32:53.475Z,23.60
2023-04-29T11:33:53.427Z,23.60
2023-04-29T11:34:53.867Z,23.60
2023-04-29T11:35:53.503Z,23.60
2023-04-29T11:36:53.550Z,23.60
2023-04-29T11:37:53.549Z,23.60
2023-04-29T11:38:53.605Z,23.59
2023-04-29T11:39:53.640Z,23.59
2023-04-29T11:40:53.667Z,23.58
2023-04-29T11:41:53.707Z,23.57
2023-04-29T11:42:53.732Z,23.58
2023-04-29T11:43:53.755Z,23.58
2023-04-29T11:44:54.204Z,23.57
2023-04-29T11:45:53.868Z,23.57
2023-04-29T11:46:53.891Z,23.57
2023-04-29T11:47:55.842Z,23.56
2023-04-29T11:48:53.958Z,23.57
2023-04-29T11:49:54.002Z,23.57
2023-04-29T11:50:54.016Z,23.57
2023-04-29T11:51:54.035Z,23.57
2023-04-29T11:52:54.103Z,23.57
2023-04-29T11:53:54.101Z,23.57
2023-04-29T11:54:54.372Z,23.58
2023-04-29T11:55:54.202Z,23.58
2023-04-29T11:56:54.194Z,23.57
2023-04-29T11:57:54.218Z,23.58
2023-04-29T11:58:54.296Z,23.58
2023-04-29T11:59:54.308Z,23.59
2023-04-29T12:00:54.311Z,23.58
2023-04-29T12:01:54.382Z,23.57
2023-04-29T12:02:54.525Z,23.58
2023-04-29T12:03:54.513Z,23.57
2023-04-29T12:04:54.920Z,23.58
2023-04-29T12:05:54.581Z,23.57
2023-04-29T12:06:54.571Z,23.57
2023-04-29T12:07:54.584Z,23.57
2023-04-29T12:08:54.617Z,23.57
2023-04-29T12:09:54.642Z,23.58
2023-04-29T12:10:54.702Z,23.59
2023-04-29T12:11:54.736Z,23.58
2023-04-29T12:12:54.755Z,23.59
2023-04-29T12:13:54.749Z,23.60
2023-04-29T12:14:55.029Z,23.59
2023-04-29T12:15:54.897Z,23.59
2023-04-29T12:16:54.854Z,23.59
2023-04-29T12:17:54.968Z,23.60
2023-04-29T12:18:54.925Z,23.61
2023-04-29T12:19:54.979Z,23.61
2023-04-29T12:20:54.983Z,23.61
2023-04-29T12:21:55.023Z,23.62
2023-04-29T12:22:55.018Z,23.63
2023-04-29T12:23:55.075Z,23.63
2023-04-29T12:24:55.228Z,23.63
2023-04-29T12:25:55.146Z,23.63
2023-04-29T12:26:55.164Z,23.63
2023-04-29T12:27:55.175Z,23.63
2023-04-29T12:28:55.227Z,23.62
2023-04-29T12:29:55.230Z,23.63
2023-04-29T12:30:55.322Z,23.63
2023-04-29T12:31:55.406Z,23.63
2023-04-29T12:32:55.449Z,23.63
2023-04-29T12:33:55.402Z,23.63
2023-04-29T12:34:55.691Z,23.63
2023-04-29T12:35:55.446Z,23.63
2023-04-29T12:36:55.474Z,23.63
2023-04-29T12:37:55.526Z,23.63
2023-04-29T12:38:55.539Z,23.62
2023-04-29T12:39:55.586Z,23.62
2023-04-29T12:40:55.606Z,23.62
2023-04-29T12:41:55.651Z,23.62
2023-04-29T12:42:55.623Z,23.61
2023-04-29T12:43:55.689Z,23.62
2023-04-29T12:44:55.954Z,23.61
2023-04-29T12:45:55.748Z,23.61
2023-04-29T12:46:58.234Z,23.61
2023-04-29T12:47:55.868Z,23.60
2023-04-29T12:48:55.794Z,23.60
2023-04-29T12:49:55.778Z,23.60
2023-04-29T12:50:55.788Z,23.60
2023-04-29T12:51:55.795Z,23.60
2023-04-29T12:52:55.750Z,23.60